OIMB  Birjand  Airport

Birjand, Iran

Add Bookmark
ICAO OIMB
Type Airport
Status Operational
Latitude
32° 53' 53" N
32.898102
Longitude
59° 15' 57" E
59.266102
Local (GMT +3.5 ) UTC
Dec 8, 2016 03:26 pm Dec 8, 2016 11:56
Sunrise-Sunset Local UTC
Begin Civil Twilight 05:55 am 02:25
Sunrise 06:22 am 02:52
Sunset 04:27 pm 12:57
End Civil Twilight 04:55 pm 13:25
VFR
VFR
MVFR
MVFR
IFR
IFR
LIFR
LIFR
Unknown
No Data

Current Weather

METAR Observed VFR
OIMB 081100Z 29014KT 9999 FEW040 18/M06 Q1018 Thu, Dec 8, 2016 @ 11:00 UTC
(56 Minutes ago)
Visual Flight Rules
Wind Visibility Clouds Conditions
290° at 14 knots (26 kph) 10 km or more
  • Few at 4,000 ft AGL
  • No significant weather
Temperatures Readings Precipitation
Current Temp
18°C
64°F
Dewpoint
-6°C
21°F
Humidity 19%
Altimeter 30.06" Hg
Sea Level Pressure 1,018 mb
Field Elevation
1,491 m
4,892 ft
None Recorded
-
-

CheckWX.com is intended as a tool to help pilots better visualize weather data. It is not intended as a substitute for an official weather briefing obtained from a Flight Service Station. CheckWX.com does not meet the FAA requirements for an official pre-flight weather briefing. Therefore, it's important that pilots still call and obtain an official FSS pre-flight weather briefing.

© 2007-2016 CheckWX.com
11:56:33 UTC